Aérodrome :
LOGIN :

S'inscrire | Disclaimer

   EN    FR    IT 

 










Légende :    VFR   VFR Marginal   IFR   IFR Intensif   IFR Très Intensif
Visi : 
Plafond : 
>= 8 km
>= 3000ft
5 à 8 km
1000 à 3000 ft
1500m à 5 km
500 à 1000 ft
800 à 1500m
200 à 500 ft
< 800m
< 200 ft
Symboles :   Orages  Brouillard  Fortes neiges  Fortes précipitations  Vent > 20 kt
SIGMETs :   Divers  Orages  Givrage  Turbulence  Onde Orograph.  Cendres Volcan.






- Altitude de l'aérodrome : 659 ft
- Code IATA : LGG


EBLG - Liège

DERNIER METAR :
  • 151350Z 15006KT 110V180 CAVOK 26/13 Q1009 NOSIG

METARs EXPIRÉS :
  • 151320Z 13005KT 070V220 CAVOK 25/11 Q1010 NOSIG
  • 151250Z 11005KT 040V180 CAVOK 26/12 Q1010 NOSIG
  • 151220Z VRB04KT CAVOK 25/11 Q1010 NOSIG
  • 151150Z 11005KT 020V190 CAVOK 24/12 Q1011 NOSIG
  • 151120Z 14005KT 050V210 CAVOK 24/13 Q1011 NOSIG
  • 151050Z VRB04KT CAVOK 24/13 Q1011 NOSIG
  • 151020Z 14005KT 100V170 CAVOK 24/12 Q1012 NOSIG
  • 150950Z 18006KT 130V210 CAVOK 23/12 Q1012 NOSIG
  • 150920Z 18007G20KT 140V230 CAVOK 22/12 Q1012 NOSIG

TAF TAF EBLG
Valide du 15 à 12h jusqu'au 16 à 18h UTC


151108Z 1512/1618 13007KT 9999 FEW040
TEMPO 1517/1521 4000 SHRA TSRA SCT040CB
PROB40
TEMPO 1518/1520 VRB15G25KT 2500 TSGR
BECMG 1520/1522 21012KT
TEMPO 1520/1602 4000 SHRA SCT012 SCT020CB
PROB30
TEMPO 1609/1617 23015G25KT SHRA



MET'MAP, la Météo Aéronautique d'un coup d'oeil ! - Copyright ORBIFLY Décembre 2007 - Disclaimer

ORBIFLY MET'MAP TEAM :

Programmation & Développement : Alexandra Zaïnal
Sur une idée originale de : Baudouin d'Aumeries
Soutien technique & logistique : Manuel Goepfert
Assistance : Marc-Olivier Méhu




SOURCES & CREDITS :

   NOAA